createdAt,value
2019-05-23T00:02:49.061Z,86.32
2019-05-23T00:05:53.820Z,86.65
2019-05-23T00:08:26.833Z,86.97
2019-05-23T00:11:01.935Z,86.92
2019-05-23T00:13:49.117Z,86.87
2019-05-23T00:16:23.505Z,86.82
2019-05-23T00:18:53.936Z,86.78
2019-05-23T00:21:24.028Z,86.80
2019-05-23T00:23:54.652Z,86.51
2019-05-23T00:26:26.188Z,85.92
2019-05-23T00:29:09.087Z,85.87
2019-05-23T00:31:35.621Z,86.10
2019-05-23T00:34:09.932Z,85.63
2019-05-23T00:36:40.201Z,85.53
2019-05-23T00:39:14.659Z,85.41
2019-05-23T00:41:44.826Z,85.15
2019-05-23T00:44:17.504Z,84.84
2019-05-23T00:46:47.440Z,84.94
2019-05-23T00:49:18.605Z,85.09
2019-05-23T00:51:48.664Z,85.05
2019-05-23T00:54:19.420Z,85.02
2019-05-23T00:56:49.702Z,84.70
2019-05-23T00:59:26.909Z,84.82
2019-05-23T01:01:51.071Z,84.78
2019-05-23T01:04:22.113Z,84.67
2019-05-23T01:06:56.185Z,84.54
2019-05-23T01:09:27.584Z,84.15
2019-05-23T01:11:57.728Z,83.88
2019-05-23T01:14:29.468Z,84.06
2019-05-23T01:17:00.978Z,83.94
2019-05-23T01:19:38.113Z,83.71
2019-05-23T01:22:06.974Z,83.62
2019-05-23T01:24:39.455Z,83.76
2019-05-23T01:27:09.062Z,84.19
2019-05-23T01:29:42.057Z,84.64
2019-05-23T01:32:25.919Z,84.76
2019-05-23T01:34:56.605Z,84.74
2019-05-23T01:37:26.194Z,84.55
2019-05-23T01:39:56.094Z,84.26
2019-05-23T01:42:28.394Z,84.02
2019-05-23T01:44:59.409Z,83.80
2019-05-23T01:47:29.393Z,83.79
2019-05-23T01:50:00.156Z,83.14
2019-05-23T01:52:30.027Z,83.07
2019-05-23T01:55:00.575Z,82.64
2019-05-23T01:57:31.899Z,82.70
2019-05-23T02:00:10.039Z,82.57
2019-05-23T02:02:36.233Z,82.52
2019-05-23T02:05:09.233Z,82.14
2019-05-23T02:07:39.060Z,82.17
2019-05-23T02:10:09.752Z,82.80
2019-05-23T02:12:39.455Z,83.10
2019-05-23T02:15:11.986Z,86.43
2019-05-23T02:17:42.052Z,87.39
2019-05-23T02:20:14.190Z,88.57
2019-05-23T02:22:44.188Z,87.65
2019-05-23T02:25:16.918Z,87.96
2019-05-23T02:27:48.370Z,88.78
2019-05-23T02:30:33.906Z,89.33
2019-05-23T02:32:52.969Z,88.48
2019-05-23T02:35:22.850Z,88.31
2019-05-23T02:38:08.070Z,89.50
2019-05-23T02:40:49.562Z,88.85
2019-05-23T02:43:22.878Z,87.84
2019-05-23T02:45:55.769Z,88.32
2019-05-23T02:48:29.078Z,89.12
2019-05-23T02:51:03.166Z,89.94
2019-05-23T02:53:37.367Z,90.54
2019-05-23T02:56:11.776Z,90.99
2019-05-23T02:58:55.931Z,91.46
2019-05-23T03:01:46.481Z,91.32
2019-05-23T03:04:21.623Z,91.35
2019-05-23T03:06:54.102Z,91.11
2019-05-23T03:09:26.548Z,90.65
2019-05-23T03:12:00.653Z,90.59
2019-05-23T03:14:31.159Z,90.24
2019-05-23T03:17:03.706Z,90.40
2019-05-23T03:19:39.310Z,89.63
2019-05-23T03:22:31.710Z,89.20
2019-05-23T03:25:04.746Z,87.90
2019-05-23T03:27:39.810Z,88.03
2019-05-23T03:30:20.139Z,87.72
2019-05-23T03:32:52.645Z,87.80
2019-05-23T03:35:31.986Z,87.92
2019-05-23T03:38:02.389Z,88.14
2019-05-23T03:40:32.145Z,86.75
2019-05-23T03:43:02.215Z,86.00
2019-05-23T03:45:33.552Z,84.52
2019-05-23T03:48:05.326Z,84.62
2019-05-23T03:50:35.535Z,84.25
2019-05-23T03:53:06.279Z,84.36
2019-05-23T03:55:36.484Z,84.19
2019-05-23T03:58:06.563Z,84.99
2019-05-23T04:00:41.517Z,84.84
2019-05-23T04:03:11.289Z,84.73
2019-05-23T04:05:43.175Z,84.87
2019-05-23T04:08:12.970Z,84.96
2019-05-23T04:10:42.497Z,85.02
2019-05-23T04:13:12.146Z,85.19
2019-05-23T04:15:41.829Z,85.12
2019-05-23T04:18:11.273Z,85.60
2019-05-23T04:20:44.705Z,85.37
2019-05-23T04:23:18.188Z,85.43
2019-05-23T04:25:47.558Z,84.96
2019-05-23T04:28:17.009Z,84.70
2019-05-23T04:30:46.406Z,84.72
2019-05-23T04:33:15.957Z,84.30
2019-05-23T04:35:45.801Z,83.86
2019-05-23T04:38:16.182Z,84.08
2019-05-23T04:40:45.635Z,83.71
2019-05-23T04:43:15.173Z,83.71
2019-05-23T04:45:44.842Z,83.48
2019-05-23T04:48:15.246Z,83.45
2019-05-23T04:50:45.585Z,83.41
2019-05-23T04:53:15.001Z,83.66
2019-05-23T04:55:45.799Z,83.16
2019-05-23T04:58:15.442Z,83.00
2019-05-23T05:00:44.780Z,83.81
2019-05-23T05:03:18.172Z,83.92
2019-05-23T05:05:46.973Z,83.49
2019-05-23T05:08:17.608Z,83.26
2019-05-23T05:10:47.335Z,83.82
2019-05-23T05:13:17.055Z,83.65
2019-05-23T05:15:46.421Z,82.65
2019-05-23T05:18:16.276Z,82.99
2019-05-23T05:20:45.879Z,82.28
2019-05-23T05:23:15.725Z,82.01
2019-05-23T05:25:45.097Z,82.61
2019-05-23T05:28:14.625Z,82.18
2019-05-23T05:30:44.341Z,82.77
2019-05-23T05:33:16.321Z,82.10
2019-05-23T05:35:45.827Z,82.20
2019-05-23T05:38:16.618Z,82.62
2019-05-23T05:40:46.759Z,81.95
2019-05-23T05:43:17.144Z,82.28
2019-05-23T05:45:46.643Z,82.04
2019-05-23T05:48:16.302Z,82.38
2019-05-23T05:50:45.706Z,81.95
2019-05-23T05:53:17.854Z,81.45
2019-05-23T05:55:49.153Z,81.89
2019-05-23T05:58:19.165Z,81.93
2019-05-23T06:00:56.577Z,82.23
2019-05-23T06:04:12.008Z,81.53
2019-05-23T06:06:49.998Z,80.89
2019-05-23T06:09:29.739Z,81.10
2019-05-23T06:12:07.863Z,82.14
2019-05-23T06:14:31.763Z,81.55
2019-05-23T06:17:03.193Z,81.03
2019-05-23T06:19:32.598Z,80.71
2019-05-23T06:22:02.405Z,80.46
2019-05-23T06:24:46.838Z,80.15
2019-05-23T06:27:10.734Z,80.41
2019-05-23T06:29:40.495Z,80.55
2019-05-23T06:32:12.461Z,80.38
2019-05-23T06:34:42.260Z,80.00
2019-05-23T06:37:12.175Z,80.14
2019-05-23T06:39:42.599Z,79.78
2019-05-23T06:42:12.012Z,80.03
2019-05-23T06:44:41.378Z,79.15
2019-05-23T06:47:11.390Z,79.53
2019-05-23T06:49:41.005Z,78.42
2019-05-23T06:52:10.629Z,78.25
2019-05-23T06:54:40.004Z,78.21
2019-05-23T06:57:09.801Z,78.13
2019-05-23T06:59:39.221Z,77.92
2019-05-23T07:02:08.698Z,77.11
2019-05-23T07:04:40.758Z,77.71
2019-05-23T07:07:10.677Z,76.76
2019-05-23T07:09:41.676Z,76.84
2019-05-23T07:12:11.100Z,76.21
2019-05-23T07:14:40.593Z,75.28
2019-05-23T07:17:10.826Z,73.77
2019-05-23T07:19:40.241Z,72.78
2019-05-23T07:22:10.485Z,71.97
2019-05-23T07:24:56.915Z,71.34
2019-05-23T07:27:11.657Z,69.93
2019-05-23T07:29:41.060Z,70.90
2019-05-23T07:32:10.813Z,71.14
2019-05-23T07:34:40.265Z,70.05
2019-05-23T07:37:09.798Z,70.40
2019-05-23T07:39:39.197Z,69.70
2019-05-23T07:42:10.490Z,68.47
2019-05-23T07:44:48.430Z,67.82
2019-05-23T07:47:12.864Z,67.74
2019-05-23T07:49:43.085Z,67.64
2019-05-23T07:52:12.778Z,68.25
2019-05-23T07:54:56.824Z,68.49
2019-05-23T07:57:26.506Z,68.03
2019-05-23T08:00:05.184Z,67.55
2019-05-23T08:02:40.703Z,67.09
2019-05-23T08:05:13.618Z,65.75
2019-05-23T08:07:43.256Z,64.92
2019-05-23T08:10:12.746Z,64.65
2019-05-23T08:12:43.017Z,63.76
2019-05-23T08:15:12.786Z,60.89
2019-05-23T08:17:42.564Z,59.52
2019-05-23T08:20:12.848Z,58.75
2019-05-23T08:22:42.280Z,58.66
2019-05-23T08:25:11.803Z,59.52
2019-05-23T08:27:41.890Z,59.76
2019-05-23T08:30:13.214Z,59.40
2019-05-23T08:32:42.985Z,60.29
2019-05-23T08:35:17.375Z,60.24
2019-05-23T08:37:43.905Z,59.79
2019-05-23T08:40:15.243Z,59.19
2019-05-23T08:42:47.479Z,58.74
2019-05-23T08:45:17.715Z,59.07
2019-05-23T08:47:47.134Z,59.96
2019-05-23T08:50:17.130Z,58.23
2019-05-23T08:52:46.505Z,57.13
2019-05-23T08:55:26.512Z,56.54
2019-05-23T08:57:56.658Z,57.18
2019-05-23T09:00:28.030Z,56.19
2019-05-23T09:02:59.330Z,55.35
2019-05-23T09:05:32.950Z,56.13
2019-05-23T09:08:03.002Z,57.30
2019-05-23T09:10:32.944Z,57.65
2019-05-23T09:13:02.327Z,58.00
2019-05-23T09:15:31.985Z,57.70
2019-05-23T09:18:02.088Z,57.44
2019-05-23T09:20:31.943Z,56.87
2019-05-23T09:23:01.707Z,57.04
2019-05-23T09:25:33.911Z,57.57
2019-05-23T09:28:03.539Z,57.42
2019-05-23T09:30:34.688Z,57.26
2019-05-23T09:33:05.763Z,57.73
2019-05-23T09:35:36.109Z,58.38
2019-05-23T09:38:05.904Z,59.26
2019-05-23T09:40:35.452Z,59.56
2019-05-23T09:43:07.232Z,58.66
2019-05-23T09:45:37.388Z,58.96
2019-05-23T09:48:07.572Z,58.68
2019-05-23T09:50:37.385Z,58.22
2019-05-23T09:53:07.196Z,57.35
2019-05-23T09:55:37.375Z,56.58
2019-05-23T09:58:06.880Z,56.10
2019-05-23T10:00:37.258Z,56.08
2019-05-23T10:03:07.154Z,55.67
2019-05-23T10:05:43.334Z,55.22
2019-05-23T10:08:09.259Z,54.31
2019-05-23T10:10:38.701Z,53.10
2019-05-23T10:13:09.331Z,50.37
2019-05-23T10:16:02.859Z,50.92
2019-05-23T10:18:32.541Z,51.40
2019-05-23T10:21:04.292Z,52.78
2019-05-23T10:23:34.676Z,54.01
2019-05-23T10:26:05.202Z,54.34
2019-05-23T10:28:34.786Z,54.62
2019-05-23T10:31:06.036Z,54.74
2019-05-23T10:33:35.956Z,55.30
2019-05-23T10:36:05.609Z,53.07
2019-05-23T10:38:35.237Z,52.49
2019-05-23T10:41:05.123Z,52.54
2019-05-23T10:43:34.537Z,53.38
2019-05-23T10:46:04.043Z,54.18
2019-05-23T10:48:35.832Z,55.22
2019-05-23T10:51:05.381Z,55.37
2019-05-23T10:53:35.159Z,54.14
2019-05-23T10:56:04.867Z,54.93
2019-05-23T10:58:35.319Z,54.31
2019-05-23T11:01:05.356Z,54.55
2019-05-23T11:03:37.256Z,55.33
2019-05-23T11:06:16.091Z,55.18
2019-05-23T11:08:40.191Z,52.22
2019-05-23T11:11:13.938Z,51.07
2019-05-23T11:13:44.605Z,51.50
2019-05-23T11:16:14.691Z,50.65
2019-05-23T11:18:44.200Z,50.75
2019-05-23T11:21:13.665Z,51.91
2019-05-23T11:23:48.225Z,51.25
2019-05-23T11:26:17.911Z,51.31
2019-05-23T11:28:47.748Z,50.63
2019-05-23T11:31:17.921Z,50.71
2019-05-23T11:33:47.720Z,51.96
2019-05-23T11:36:33.686Z,52.67
2019-05-23T11:38:48.591Z,52.61
2019-05-23T11:41:18.184Z,53.03
2019-05-23T11:43:47.546Z,52.63
2019-05-23T11:46:21.783Z,52.28
2019-05-23T11:48:51.846Z,53.45
2019-05-23T11:51:25.117Z,52.43
2019-05-23T11:54:06.507Z,52.45
2019-05-23T11:56:24.304Z,52.12
2019-05-23T11:58:53.726Z,51.52
2019-05-23T12:01:44.913Z,52.42
2019-05-23T12:04:22.178Z,52.31
2019-05-23T12:07:10.862Z,52.41
2019-05-23T12:09:40.477Z,52.60
2019-05-23T12:12:09.992Z,52.73
2019-05-23T12:14:41.441Z,52.03
2019-05-23T12:17:11.962Z,52.13
2019-05-23T12:19:41.842Z,52.60
2019-05-23T12:22:12.380Z,52.70
2019-05-23T12:24:41.971Z,51.76
2019-05-23T12:27:12.078Z,52.87
2019-05-23T12:29:41.502Z,51.32
2019-05-23T12:32:12.709Z,51.71
2019-05-23T12:34:42.175Z,50.72
2019-05-23T12:37:18.918Z,51.57
2019-05-23T12:39:43.241Z,51.61
2019-05-23T12:42:12.673Z,51.76
2019-05-23T12:44:42.126Z,51.45
2019-05-23T12:47:25.351Z,51.60
2019-05-23T12:50:00.511Z,51.60
2019-05-23T12:52:35.601Z,51.02
2019-05-23T12:55:06.260Z,51.29
2019-05-23T12:57:35.733Z,50.88
2019-05-23T13:00:08.184Z,51.84
2019-05-23T13:02:37.718Z,51.79
2019-05-23T13:05:09.269Z,50.85
2019-05-23T13:07:39.590Z,50.94
2019-05-23T13:10:09.683Z,50.55
2019-05-23T13:12:39.415Z,51.04
2019-05-23T13:15:09.234Z,51.16
2019-05-23T13:17:38.715Z,50.88
2019-05-23T13:20:09.036Z,50.86
2019-05-23T13:22:38.978Z,51.73
2019-05-23T13:25:08.563Z,51.37
2019-05-23T13:27:38.531Z,51.11
2019-05-23T13:30:09.044Z,51.20
2019-05-23T13:32:38.755Z,51.17
2019-05-23T13:35:08.729Z,52.14
2019-05-23T13:37:52.403Z,51.08
2019-05-23T13:40:11.326Z,51.50
2019-05-23T13:42:40.713Z,51.33
2019-05-23T13:45:10.717Z,51.25
2019-05-23T13:47:40.097Z,50.76
2019-05-23T13:50:10.294Z,50.63
2019-05-23T13:52:40.758Z,50.21
2019-05-23T13:55:12.503Z,50.15
2019-05-23T13:57:41.943Z,49.46
2019-05-23T14:00:14.984Z,49.37
2019-05-23T14:02:44.497Z,49.61
2019-05-23T14:05:18.751Z,49.58
2019-05-23T14:08:12.230Z,49.42
2019-05-23T14:10:35.276Z,49.64
2019-05-23T14:13:05.103Z,48.90
2019-05-23T14:15:39.748Z,49.89
2019-05-23T14:18:12.681Z,50.26
2019-05-23T14:20:42.295Z,49.94
2019-05-23T14:23:30.758Z,50.46
2019-05-23T14:26:11.048Z,48.71
2019-05-23T14:28:41.808Z,49.37
2019-05-23T14:31:23.775Z,48.63
2019-05-23T14:33:55.703Z,49.14
2019-05-23T14:36:56.258Z,48.31
2019-05-23T14:39:39.690Z,48.90
2019-05-23T14:42:28.841Z,48.86
2019-05-23T14:44:58.721Z,49.38
2019-05-23T14:47:56.242Z,48.38
2019-05-23T14:50:46.468Z,48.87
2019-05-23T14:53:19.070Z,49.01
2019-05-23T14:55:50.459Z,49.29
2019-05-23T14:58:21.273Z,49.29
2019-05-23T15:00:50.763Z,49.83
2019-05-23T15:03:20.533Z,49.43
2019-05-23T15:05:50.061Z,49.34
2019-05-23T15:08:22.887Z,49.40
2019-05-23T15:10:53.545Z,49.32
2019-05-23T15:13:23.021Z,48.76
2019-05-23T15:15:52.441Z,48.93
2019-05-23T15:18:21.895Z,49.37
2019-05-23T15:20:51.328Z,48.95
2019-05-23T15:23:20.705Z,49.20
2019-05-23T15:25:50.151Z,48.12
2019-05-23T15:28:19.500Z,47.82
2019-05-23T15:30:48.958Z,47.01
2019-05-23T15:33:18.376Z,45.97
2019-05-23T15:35:48.815Z,44.56
2019-05-23T15:38:18.294Z,42.29
2019-05-23T15:40:47.778Z,41.88
2019-05-23T15:43:17.165Z,41.05
2019-05-23T15:45:46.767Z,40.29
2019-05-23T15:48:16.174Z,39.00
2019-05-23T15:50:49.889Z,38.85
2019-05-23T15:53:40.130Z,37.75
2019-05-23T15:56:31.053Z,37.67
2019-05-23T15:59:18.100Z,37.73
2019-05-23T16:01:57.897Z,37.46
2019-05-23T16:04:27.713Z,36.76
2019-05-23T16:06:57.310Z,35.24
2019-05-23T16:09:30.182Z,35.24
2019-05-23T16:11:58.668Z,33.81
2019-05-23T16:14:29.355Z,34.09
2019-05-23T16:16:59.109Z,34.11
2019-05-23T16:19:28.563Z,33.83
2019-05-23T16:21:58.131Z,33.54
2019-05-23T16:24:28.032Z,32.83
2019-05-23T16:26:57.454Z,32.50
2019-05-23T16:29:27.447Z,32.71
2019-05-23T16:31:57.020Z,31.98
2019-05-23T16:34:26.803Z,32.49
2019-05-23T16:36:56.273Z,31.62
2019-05-23T16:39:25.916Z,32.43
2019-05-23T16:41:55.926Z,32.70
2019-05-23T16:44:30.441Z,31.34
2019-05-23T16:47:00.087Z,31.54
2019-05-23T16:49:32.581Z,32.33
2019-05-23T16:52:03.925Z,32.25
2019-05-23T16:54:40.000Z,32.63
2019-05-23T16:57:36.861Z,32.67
2019-05-23T17:00:34.580Z,32.41
2019-05-23T17:03:12.660Z,33.22
2019-05-23T17:06:00.370Z,32.46
2019-05-23T17:08:50.185Z,32.51
2019-05-23T17:11:37.881Z,32.73
2019-05-23T17:14:12.788Z,33.69
2019-05-23T17:17:06.627Z,34.89
2019-05-23T17:20:01.289Z,35.52
2019-05-23T17:22:49.326Z,36.96
2019-05-23T17:25:46.958Z,37.03
2019-05-23T17:28:24.114Z,37.39
2019-05-23T17:31:05.876Z,37.93
2019-05-23T17:33:37.164Z,38.67
2019-05-23T17:36:08.508Z,39.04
2019-05-23T17:38:37.995Z,39.34
2019-05-23T17:41:09.452Z,40.15
2019-05-23T17:43:39.115Z,40.31
2019-05-23T17:46:08.614Z,40.60
2019-05-23T17:48:38.250Z,40.71
2019-05-23T17:51:10.185Z,41.27
2019-05-23T17:53:39.615Z,41.90
2019-05-23T17:56:11.946Z,43.44
2019-05-23T17:58:41.954Z,43.64
2019-05-23T18:01:11.421Z,43.39
2019-05-23T18:03:40.915Z,44.72
2019-05-23T18:06:10.762Z,44.09
2019-05-23T18:08:42.872Z,44.90
2019-05-23T18:11:12.836Z,46.37
2019-05-23T18:13:43.747Z,45.22
2019-05-23T18:16:14.047Z,45.95
2019-05-23T18:18:44.503Z,46.10
2019-05-23T18:21:14.090Z,47.63
2019-05-23T18:23:43.523Z,48.22
2019-05-23T18:26:12.967Z,49.23
2019-05-23T18:28:43.160Z,49.81
2019-05-23T18:31:17.018Z,50.29
2019-05-23T18:33:46.573Z,50.64
2019-05-23T18:36:16.135Z,50.83
2019-05-23T18:38:45.804Z,52.16
2019-05-23T18:41:15.520Z,53.50
2019-05-23T18:43:45.418Z,53.16
2019-05-23T18:46:20.379Z,53.68
2019-05-23T18:48:49.906Z,53.26
2019-05-23T18:51:19.443Z,54.02
2019-05-23T18:53:49.534Z,54.29
2019-05-23T18:56:19.016Z,55.65
2019-05-23T18:58:49.090Z,56.35
2019-05-23T19:01:25.073Z,56.48
2019-05-23T19:04:02.290Z,56.91
2019-05-23T19:06:31.824Z,57.25
2019-05-23T19:09:01.447Z,58.35
2019-05-23T19:11:31.887Z,59.01
2019-05-23T19:14:01.638Z,58.74
2019-05-23T19:16:32.829Z,58.36
2019-05-23T19:19:04.064Z,58.50
2019-05-23T19:21:34.445Z,59.46
2019-05-23T19:24:09.168Z,59.44
2019-05-23T19:26:39.083Z,59.48
2019-05-23T19:29:09.243Z,60.28
2019-05-23T19:31:39.419Z,60.48
2019-05-23T19:34:09.270Z,60.81
2019-05-23T19:36:39.311Z,61.37
2019-05-23T19:39:08.948Z,61.64
2019-05-23T19:41:38.808Z,61.63
2019-05-23T19:44:08.479Z,61.87
2019-05-23T19:46:38.270Z,62.57
2019-05-23T19:49:08.592Z,62.29
2019-05-23T19:51:41.768Z,62.09
2019-05-23T19:54:11.621Z,62.63
2019-05-23T19:56:41.198Z,63.23
2019-05-23T19:59:10.683Z,64.57
2019-05-23T20:02:11.253Z,64.01
2019-05-23T20:04:43.901Z,64.11
2019-05-23T20:07:15.478Z,64.38
2019-05-23T20:09:44.807Z,65.10
2019-05-23T20:12:15.511Z,65.64
2019-05-23T20:14:44.897Z,65.37
2019-05-23T20:17:14.717Z,66.19
2019-05-23T20:19:44.243Z,66.70
2019-05-23T20:22:13.794Z,66.92
2019-05-23T20:24:43.263Z,67.32
2019-05-23T20:27:14.497Z,67.04
2019-05-23T20:29:43.865Z,67.18
2019-05-23T20:32:13.447Z,67.14
2019-05-23T20:34:42.892Z,67.39
2019-05-23T20:37:12.362Z,67.35
2019-05-23T20:39:41.718Z,67.12
2019-05-23T20:42:12.255Z,67.19
2019-05-23T20:44:41.794Z,67.45
2019-05-23T20:47:11.648Z,67.33
2019-05-23T20:49:41.138Z,67.42
2019-05-23T20:52:10.578Z,67.77
2019-05-23T20:54:40.144Z,68.31
2019-05-23T20:57:09.692Z,68.38
2019-05-23T20:59:39.182Z,68.51
2019-05-23T21:02:08.704Z,68.31
2019-05-23T21:04:38.280Z,68.97
2019-05-23T21:07:07.667Z,69.11
2019-05-23T21:09:37.222Z,69.39
2019-05-23T21:12:07.844Z,68.81
2019-05-23T21:14:37.830Z,68.29
2019-05-23T21:17:07.561Z,67.45
2019-05-23T21:19:37.143Z,67.29
2019-05-23T21:22:06.789Z,66.54
2019-05-23T21:24:36.475Z,65.95
2019-05-23T21:27:05.913Z,65.49
2019-05-23T21:29:35.606Z,64.51
2019-05-23T21:32:05.191Z,64.42
2019-05-23T21:34:34.785Z,63.62
2019-05-23T21:37:04.400Z,63.63
2019-05-23T21:39:34.246Z,63.40
2019-05-23T21:42:04.319Z,62.67
2019-05-23T21:44:35.835Z,61.91
2019-05-23T21:47:05.654Z,62.28
2019-05-23T21:49:35.215Z,62.01
2019-05-23T21:52:05.311Z,62.14
2019-05-23T21:54:34.746Z,61.50
2019-05-23T21:57:04.196Z,61.54
2019-05-23T21:59:33.674Z,61.69
2019-05-23T22:02:34.750Z,62.04
2019-05-23T22:05:17.719Z,62.13
2019-05-23T22:07:47.727Z,61.73
2019-05-23T22:10:17.074Z,61.23
2019-05-23T22:13:01.834Z,61.41
2019-05-23T22:15:34.835Z,61.54
2019-05-23T22:18:04.589Z,61.30
2019-05-23T22:20:36.939Z,61.68
2019-05-23T22:23:06.708Z,61.37
2019-05-23T22:25:36.321Z,61.56
2019-05-23T22:28:05.731Z,61.47
2019-05-23T22:30:35.283Z,61.22
2019-05-23T22:33:05.752Z,61.64
2019-05-23T22:35:35.598Z,61.29
2019-05-23T22:38:05.635Z,61.54
2019-05-23T22:40:38.772Z,61.59
2019-05-23T22:43:20.751Z,61.98
2019-05-23T22:45:41.139Z,61.39
2019-05-23T22:48:10.559Z,62.05
2019-05-23T22:50:40.064Z,62.30
2019-05-23T22:53:09.452Z,61.80
2019-05-23T22:55:38.928Z,61.94
2019-05-23T22:58:08.405Z,61.79
2019-05-23T23:00:39.809Z,62.06
2019-05-23T23:03:09.278Z,61.77
2019-05-23T23:05:38.738Z,61.77
2019-05-23T23:08:08.376Z,61.57
2019-05-23T23:10:37.907Z,62.32
2019-05-23T23:13:07.487Z,62.76
2019-05-23T23:15:38.762Z,63.25
2019-05-23T23:18:08.516Z,63.56
2019-05-23T23:20:38.110Z,63.38
2019-05-23T23:23:07.579Z,63.39
2019-05-23T23:25:41.465Z,63.50
2019-05-23T23:28:10.857Z,63.70
2019-05-23T23:30:42.090Z,63.60
2019-05-23T23:33:11.480Z,64.14
2019-05-23T23:35:40.877Z,64.33
2019-05-23T23:38:10.515Z,64.13
2019-05-23T23:40:40.130Z,64.69
2019-05-23T23:43:09.597Z,64.17
2019-05-23T23:46:06.282Z,64.63
2019-05-23T23:48:54.739Z,64.98
2019-05-23T23:51:41.721Z,65.61
2019-05-23T23:54:29.139Z,65.37
2019-05-23T23:57:16.604Z,65.82
2019-05-23T23:59:45.003Z,65.97
